createdAt,value
2023-12-19T00:02:57.704Z,4.46
2023-12-19T00:05:28.796Z,4.43
2023-12-19T00:08:10.516Z,4.44
2023-12-19T00:14:41.969Z,4.46
2023-12-19T00:17:11.794Z,4.36
2023-12-19T00:22:57.759Z,4.41
2023-12-19T00:25:32.131Z,4.43
2023-12-19T00:28:03.340Z,4.38
2023-12-19T00:30:30.240Z,4.46
2023-12-19T00:33:28.989Z,4.39
2023-12-19T00:36:22.450Z,4.49
2023-12-19T00:38:53.425Z,4.46
2023-12-19T00:41:20.233Z,4.48
2023-12-19T00:43:49.897Z,4.41
2023-12-19T00:46:25.126Z,4.42
2023-12-19T00:49:14.020Z,4.45
2023-12-19T00:51:58.840Z,4.46
2023-12-19T00:54:40.454Z,4.42
2023-12-19T00:57:17.561Z,4.43
2023-12-19T01:00:28.528Z,4.50
2023-12-19T01:03:01.439Z,4.46
2023-12-19T01:05:31.410Z,4.45
2023-12-19T01:07:58.112Z,4.42
2023-12-19T01:10:24.824Z,4.37
2023-12-19T01:12:57.585Z,4.34
2023-12-19T01:15:27.069Z,4.31
2023-12-19T01:17:56.173Z,4.34
2023-12-19T01:20:40.938Z,4.25
2023-12-19T01:23:15.074Z,4.33
2023-12-19T01:25:42.030Z,4.25
2023-12-19T01:28:11.576Z,4.15
2023-12-19T01:30:48.488Z,4.17
2023-12-19T01:33:15.307Z,4.27
2023-12-19T01:35:42.358Z,4.22
2023-12-19T01:38:20.336Z,4.26
2023-12-19T01:40:47.011Z,4.27
2023-12-19T01:43:21.208Z,4.23
2023-12-19T01:45:49.868Z,4.23
2023-12-19T01:48:18.320Z,4.19
2023-12-19T01:50:45.063Z,4.21
2023-12-19T01:53:13.134Z,4.32
2023-12-19T01:55:41.589Z,4.21
2023-12-19T01:58:09.706Z,4.18
2023-12-19T02:00:37.524Z,4.14
2023-12-19T02:03:05.355Z,4.23
2023-12-19T02:05:34.021Z,4.19
2023-12-19T02:08:00.844Z,4.15
2023-12-19T02:10:28.344Z,4.18
2023-12-19T02:12:55.167Z,4.15
2023-12-19T02:15:23.526Z,4.18
2023-12-19T02:17:59.126Z,4.16
2023-12-19T02:20:25.927Z,4.15
2023-12-19T02:22:57.711Z,4.15
2023-12-19T02:25:26.995Z,4.18
2023-12-19T02:27:58.506Z,4.14
2023-12-19T02:30:28.004Z,4.06
2023-12-19T02:32:54.755Z,4.16
2023-12-19T02:35:21.404Z,4.15
2023-12-19T02:37:48.337Z,4.11
2023-12-19T02:40:15.014Z,4.18
2023-12-19T02:42:42.903Z,4.12
2023-12-19T02:45:11.197Z,4.13
2023-12-19T02:47:38.270Z,4.10
2023-12-19T02:50:05.523Z,4.16
2023-12-19T02:52:32.524Z,4.15
2023-12-19T02:54:59.377Z,4.17
2023-12-19T02:57:36.123Z,4.20
2023-12-19T03:00:02.999Z,4.15
2023-12-19T03:02:29.695Z,4.15
2023-12-19T03:05:07.077Z,4.16
2023-12-19T03:07:34.407Z,4.17
2023-12-19T03:10:01.177Z,4.19
2023-12-19T03:12:35.257Z,4.21
2023-12-19T03:15:03.124Z,4.19
2023-12-19T03:17:29.866Z,4.23
2023-12-19T03:19:56.636Z,4.17
2023-12-19T03:22:23.379Z,4.22
2023-12-19T03:24:52.483Z,4.19
2023-12-19T03:27:19.242Z,4.28
2023-12-19T03:29:45.886Z,4.21
2023-12-19T03:32:12.887Z,4.22
2023-12-19T03:34:40.064Z,4.25
2023-12-19T03:37:12.437Z,4.19
2023-12-19T03:39:39.196Z,4.18
2023-12-19T03:42:11.714Z,4.17
2023-12-19T03:44:45.546Z,4.19
2023-12-19T03:47:13.392Z,4.19
2023-12-19T03:49:40.392Z,4.16
2023-12-19T03:52:16.255Z,4.16
2023-12-19T03:54:42.868Z,4.18
2023-12-19T03:57:09.478Z,4.15
2023-12-19T03:59:40.577Z,4.18
2023-12-19T04:02:10.114Z,4.17
2023-12-19T04:04:37.038Z,4.24
2023-12-19T04:07:16.651Z,4.09
2023-12-19T04:09:43.340Z,4.17
2023-12-19T04:12:11.042Z,4.14
2023-12-19T04:14:37.724Z,4.14
2023-12-19T04:17:07.141Z,4.16
2023-12-19T04:19:40.826Z,4.14
2023-12-19T04:22:14.911Z,4.14
2023-12-19T04:24:41.724Z,4.13
2023-12-19T04:27:12.087Z,4.07
2023-12-19T04:29:44.854Z,4.14
2023-12-19T04:32:11.722Z,4.10
2023-12-19T04:34:38.414Z,4.12
2023-12-19T04:37:08.424Z,4.09
2023-12-19T04:39:38.102Z,4.19
2023-12-19T04:42:18.282Z,4.15
2023-12-19T04:44:53.749Z,4.18
2023-12-19T04:47:20.423Z,4.20
2023-12-19T04:49:47.223Z,4.17
2023-12-19T04:52:13.910Z,4.14
2023-12-19T04:54:49.915Z,4.20
2023-12-19T04:57:16.743Z,4.20
2023-12-19T04:59:43.438Z,4.19
2023-12-19T05:02:10.144Z,4.19
2023-12-19T05:04:42.309Z,4.22
2023-12-19T05:07:08.956Z,4.18
2023-12-19T05:09:35.682Z,4.19
2023-12-19T05:12:11.517Z,4.21
2023-12-19T05:14:38.675Z,4.20
2023-12-19T05:17:08.113Z,4.18
2023-12-19T05:19:46.426Z,4.22
2023-12-19T05:22:17.078Z,4.25
2023-12-19T05:24:43.836Z,4.17
2023-12-19T05:27:17.497Z,4.29
2023-12-19T05:29:44.920Z,4.21
2023-12-19T05:32:11.594Z,4.25
2023-12-19T05:34:47.493Z,4.26
2023-12-19T05:37:14.384Z,4.28
2023-12-19T05:39:43.447Z,4.27
2023-12-19T05:42:39.750Z,4.31
2023-12-19T05:45:10.100Z,4.32
2023-12-19T05:47:44.027Z,4.37
2023-12-19T05:50:10.821Z,4.35
2023-12-19T05:52:37.452Z,4.30
2023-12-19T05:55:04.544Z,4.38
2023-12-19T05:57:31.358Z,4.33
2023-12-19T06:00:07.563Z,4.35
2023-12-19T06:02:35.086Z,4.40
2023-12-19T06:05:02.470Z,4.36
2023-12-19T06:07:30.755Z,4.44
2023-12-19T06:09:57.424Z,4.41
2023-12-19T06:12:24.100Z,4.47
2023-12-19T06:14:50.716Z,4.51
2023-12-19T06:17:17.285Z,4.45
2023-12-19T06:19:51.739Z,4.42
2023-12-19T06:22:18.477Z,4.47
2023-12-19T06:24:46.396Z,4.50
2023-12-19T06:27:22.270Z,4.41
2023-12-19T06:29:52.081Z,4.44
2023-12-19T06:32:25.623Z,4.41
2023-12-19T06:34:56.590Z,4.36
2023-12-19T06:37:23.398Z,4.41
2023-12-19T06:39:50.266Z,4.37
2023-12-19T06:42:24.466Z,4.38
2023-12-19T06:44:51.235Z,4.40
2023-12-19T06:47:18.464Z,4.38
2023-12-19T06:49:55.404Z,4.43
2023-12-19T06:52:22.121Z,4.38
2023-12-19T06:54:50.078Z,4.41
2023-12-19T06:57:26.081Z,4.39
2023-12-19T06:59:52.913Z,4.37
2023-12-19T07:02:19.595Z,4.36
2023-12-19T07:04:46.234Z,4.43
2023-12-19T07:07:46.020Z,4.39
2023-12-19T07:10:12.754Z,4.47
2023-12-19T07:12:40.526Z,4.44
2023-12-19T07:15:13.366Z,4.37
2023-12-19T07:17:40.073Z,4.47
2023-12-19T07:20:45.270Z,4.48
2023-12-19T07:23:12.043Z,4.44
2023-12-19T07:34:22.227Z,4.59
2023-12-19T07:36:49.170Z,4.53
2023-12-19T07:39:15.854Z,4.48
2023-12-19T07:41:50.383Z,4.52
2023-12-19T07:44:17.626Z,4.53
2023-12-19T07:46:44.557Z,4.53
2023-12-19T07:49:22.719Z,4.60
2023-12-19T07:51:52.614Z,4.58
2023-12-19T07:54:19.733Z,4.59
2023-12-19T07:56:52.471Z,4.62
2023-12-19T07:59:19.344Z,4.62
2023-12-19T08:01:50.114Z,4.58
2023-12-19T08:04:40.092Z,4.65
2023-12-19T08:07:06.941Z,4.70
2023-12-19T08:12:17.314Z,4.74
2023-12-19T08:14:44.093Z,4.67
2023-12-19T08:17:36.996Z,4.75
2023-12-19T08:20:08.818Z,4.75
2023-12-19T08:22:35.561Z,4.84
2023-12-19T08:25:02.422Z,4.83
2023-12-19T08:27:36.715Z,4.85
2023-12-19T08:30:05.933Z,4.88
2023-12-19T08:32:32.797Z,4.84
2023-12-19T08:37:40.656Z,4.88
2023-12-19T08:40:09.398Z,4.90
2023-12-19T08:43:01.408Z,4.90
2023-12-19T08:45:30.732Z,4.88
2023-12-19T08:48:23.184Z,4.99
2023-12-19T08:50:52.423Z,5.00
2023-12-19T08:53:20.272Z,4.98
2023-12-19T08:55:48.495Z,5.03
2023-12-19T08:58:24.381Z,4.99
2023-12-19T09:00:51.410Z,5.01
2023-12-19T09:03:18.338Z,4.99
2023-12-19T09:05:57.543Z,5.01
2023-12-19T09:08:25.220Z,5.02
2023-12-19T09:10:54.493Z,5.02
2023-12-19T09:13:24.612Z,5.04
2023-12-19T09:15:51.471Z,5.06
2023-12-19T09:18:19.289Z,5.03
2023-12-19T09:23:56.270Z,5.09
2023-12-19T09:26:22.969Z,5.11
2023-12-19T09:28:52.681Z,5.10
2023-12-19T09:31:19.449Z,5.14
2023-12-19T09:33:55.472Z,5.08
2023-12-19T09:36:23.864Z,5.09
2023-12-19T09:39:05.952Z,5.15
2023-12-19T09:41:55.013Z,5.19
2023-12-19T09:44:47.758Z,5.15
2023-12-19T09:47:33.225Z,5.21
2023-12-19T09:50:04.476Z,5.20
2023-12-19T09:53:09.516Z,5.19
2023-12-19T09:55:46.643Z,5.21
2023-12-19T09:58:13.897Z,5.25
2023-12-19T10:00:46.593Z,5.30
2023-12-19T10:04:03.742Z,5.28
2023-12-19T10:06:51.878Z,5.31
2023-12-19T10:10:16.235Z,5.26
2023-12-19T10:13:14.667Z,5.30
2023-12-19T10:23:53.144Z,5.39
2023-12-19T10:26:36.645Z,5.37
2023-12-19T10:29:03.387Z,5.39
2023-12-19T10:31:30.291Z,5.42
2023-12-19T10:34:18.952Z,5.38
2023-12-19T10:36:46.151Z,5.40
2023-12-19T10:42:35.608Z,5.46
2023-12-19T10:45:28.580Z,5.43
2023-12-19T10:47:59.651Z,5.50
2023-12-19T10:50:32.033Z,5.44
2023-12-19T10:53:31.797Z,5.44
2023-12-19T10:55:59.884Z,5.46
2023-12-19T10:58:27.657Z,5.44
2023-12-19T11:09:50.147Z,5.50
2023-12-19T11:12:17.910Z,5.47
2023-12-19T11:14:44.597Z,5.48
2023-12-19T11:17:17.004Z,5.41
2023-12-19T11:20:06.145Z,5.54
2023-12-19T11:22:42.722Z,5.60
2023-12-19T11:25:44.129Z,5.48
2023-12-19T11:28:17.917Z,5.53
2023-12-19T11:30:53.981Z,5.55
2023-12-19T11:33:30.952Z,5.49
2023-12-19T11:36:19.296Z,5.55
2023-12-19T11:39:04.947Z,5.54
2023-12-19T11:41:46.348Z,5.55
2023-12-19T11:44:39.261Z,5.54
2023-12-19T11:47:29.834Z,5.51
2023-12-19T11:49:56.620Z,5.60
2023-12-19T11:52:50.004Z,5.61
2023-12-19T11:55:51.281Z,5.59
2023-12-19T11:59:13.281Z,5.61
2023-12-19T12:02:24.978Z,5.60
2023-12-19T12:05:08.012Z,5.65
2023-12-19T12:08:40.455Z,5.67
2023-12-19T12:11:12.756Z,5.64
2023-12-19T12:14:02.512Z,5.66
2023-12-19T12:16:39.757Z,5.66
2023-12-19T12:19:31.057Z,5.73
2023-12-19T12:27:06.060Z,5.75
2023-12-19T12:30:48.794Z,5.79
2023-12-19T12:33:16.895Z,5.68
2023-12-19T12:35:43.576Z,5.78
2023-12-19T12:38:25.693Z,5.74
2023-12-19T12:40:55.849Z,5.71
2023-12-19T12:43:29.695Z,5.66
2023-12-19T12:46:48.772Z,5.76
2023-12-19T12:49:22.740Z,5.67
2023-12-19T12:52:16.239Z,5.73
2023-12-19T12:54:48.381Z,5.68
2023-12-19T12:57:15.346Z,5.68
2023-12-19T12:59:42.181Z,5.75
2023-12-19T13:02:09.026Z,5.66
2023-12-19T13:04:41.371Z,5.72
2023-12-19T13:08:07.618Z,5.68
2023-12-19T13:10:42.563Z,5.69
2023-12-19T13:17:50.000Z,5.74
2023-12-19T13:29:14.083Z,5.75
2023-12-19T13:32:45.746Z,5.82
2023-12-19T13:46:32.722Z,5.68
2023-12-19T13:49:43.893Z,5.65
2023-12-19T13:53:08.675Z,5.68
2023-12-19T13:55:45.928Z,5.63
2023-12-19T13:58:27.243Z,5.71
2023-12-19T14:01:18.762Z,5.67
2023-12-19T14:03:57.534Z,5.69
2023-12-19T14:09:44.255Z,5.65
2023-12-19T14:12:29.931Z,5.65
2023-12-19T14:14:59.152Z,5.67
2023-12-19T14:17:41.430Z,5.65
2023-12-19T14:20:15.035Z,5.65
2023-12-19T14:22:42.516Z,5.68
2023-12-19T14:25:29.218Z,5.58
2023-12-19T14:28:33.862Z,5.70
2023-12-19T14:31:27.350Z,5.60
2023-12-19T14:51:06.374Z,5.61
2023-12-19T14:57:26.730Z,5.62
2023-12-19T15:00:40.710Z,5.58
2023-12-19T15:03:01.088Z,5.68
2023-12-19T15:05:31.962Z,5.59
2023-12-19T15:11:28.690Z,5.60
2023-12-19T15:14:21.958Z,5.57
2023-12-19T15:16:57.048Z,5.67
2023-12-19T15:20:00.028Z,5.63
2023-12-19T15:22:31.729Z,5.59
2023-12-19T15:24:58.590Z,5.64
2023-12-19T15:34:15.185Z,5.59
2023-12-19T15:37:16.870Z,5.58
2023-12-19T15:39:43.830Z,5.61
2023-12-19T15:40:06.703Z,5.63
2023-12-19T15:42:16.786Z,5.64
2023-12-19T15:44:46.398Z,5.54
2023-12-19T15:47:21.128Z,5.57
2023-12-19T15:54:47.783Z,5.65
2023-12-19T15:57:17.062Z,5.64
2023-12-19T15:59:47.698Z,5.59
2023-12-19T16:03:28.077Z,5.64
2023-12-19T16:06:08.762Z,5.61
2023-12-19T16:18:01.450Z,5.65
2023-12-19T16:25:07.040Z,5.57
2023-12-19T16:27:36.404Z,5.65
2023-12-19T16:30:04.579Z,5.55
2023-12-19T16:32:31.384Z,5.58
2023-12-19T16:34:58.014Z,5.54
2023-12-19T16:37:24.831Z,5.61
2023-12-19T16:39:54.618Z,5.57
2023-12-19T16:42:23.331Z,5.58
2023-12-19T16:44:50.197Z,5.54
2023-12-19T16:47:17.177Z,5.55
2023-12-19T16:49:44.316Z,5.52
2023-12-19T16:52:21.308Z,5.51
2023-12-19T16:54:50.085Z,5.56
2023-12-19T16:57:24.122Z,5.52
2023-12-19T16:59:53.383Z,5.49
2023-12-19T17:02:20.055Z,5.50
2023-12-19T17:04:56.116Z,5.57
2023-12-19T17:07:22.871Z,5.54
2023-12-19T17:09:49.753Z,5.51
2023-12-19T17:12:26.819Z,5.58
2023-12-19T17:14:53.481Z,5.61
2023-12-19T17:17:21.186Z,5.46
2023-12-19T17:28:19.838Z,5.55
2023-12-19T17:31:55.737Z,5.49
2023-12-19T17:44:12.685Z,5.46
2023-12-19T17:46:39.927Z,5.43
2023-12-19T17:49:08.207Z,5.51
2023-12-19T17:51:37.415Z,5.47
2023-12-19T17:54:12.260Z,5.52
2023-12-19T17:57:23.111Z,5.48
2023-12-19T18:00:01.890Z,5.44
2023-12-19T18:03:30.628Z,5.45
2023-12-19T18:06:27.906Z,5.36
2023-12-19T18:13:40.752Z,5.42
2023-12-19T18:17:00.841Z,5.36
2023-12-19T18:19:43.869Z,5.37
2023-12-19T18:22:17.194Z,5.41
2023-12-19T18:25:09.161Z,5.39
2023-12-19T18:40:37.618Z,5.38
2023-12-19T18:43:09.458Z,5.41
2023-12-19T18:45:36.364Z,5.35
2023-12-19T18:48:10.044Z,5.39
2023-12-19T18:50:40.891Z,5.34
2023-12-19T18:53:37.172Z,5.31
2023-12-19T18:56:20.226Z,5.33
2023-12-19T18:59:07.781Z,5.35
2023-12-19T19:01:36.943Z,5.33
2023-12-19T19:04:49.998Z,5.31
2023-12-19T19:07:16.816Z,5.27
2023-12-19T19:09:45.949Z,5.37
2023-12-19T19:12:16.225Z,5.34
2023-12-19T19:14:49.506Z,5.32
2023-12-19T19:17:18.749Z,5.33
2023-12-19T19:24:30.233Z,5.31
2023-12-19T19:34:56.277Z,5.33
2023-12-19T19:37:30.157Z,5.34
2023-12-19T19:40:14.891Z,5.32
2023-12-19T19:46:39.705Z,5.34
2023-12-19T19:49:08.999Z,5.31
2023-12-19T19:51:42.694Z,5.29
2023-12-19T19:54:12.678Z,5.30
2023-12-19T19:56:41.987Z,5.24
2023-12-19T19:59:15.202Z,5.30
2023-12-19T20:02:00.501Z,5.32
2023-12-19T20:04:58.757Z,5.23
2023-12-19T20:07:44.137Z,5.33
2023-12-19T20:11:29.994Z,5.27
2023-12-19T20:14:30.694Z,5.29
2023-12-19T21:29:26.324Z,5.35
2023-12-19T21:32:09.149Z,5.42
2023-12-19T21:34:48.889Z,5.45
2023-12-19T21:37:15.909Z,5.38
2023-12-19T21:39:42.729Z,5.43
2023-12-19T21:42:09.432Z,5.38
2023-12-19T21:44:42.660Z,5.44
2023-12-19T21:47:12.641Z,5.39
2023-12-19T21:49:50.626Z,5.39
2023-12-19T21:52:20.395Z,5.39
2023-12-19T21:54:51.615Z,5.38
2023-12-19T21:57:21.727Z,5.43
2023-12-19T21:59:53.154Z,5.36
2023-12-19T22:02:29.635Z,5.42
2023-12-19T22:08:09.529Z,5.39
2023-12-19T22:10:42.211Z,5.43
2023-12-19T22:13:09.042Z,5.42
2023-12-19T22:15:36.890Z,5.40
2023-12-19T22:18:03.757Z,5.46
2023-12-19T22:20:39.161Z,5.51
2023-12-19T22:23:06.908Z,5.39
2023-12-19T22:25:34.669Z,5.44
2023-12-19T22:28:07.072Z,5.48
2023-12-19T22:30:33.993Z,5.46
2023-12-19T22:33:00.818Z,5.46
2023-12-19T22:35:30.130Z,5.48
2023-12-19T22:38:03.161Z,5.46
2023-12-19T22:40:32.479Z,5.53
2023-12-19T22:42:59.399Z,5.46
2023-12-19T22:45:29.071Z,5.46
2023-12-19T22:47:58.813Z,5.51
2023-12-19T22:50:28.351Z,5.54
2023-12-19T22:53:05.909Z,5.57
2023-12-19T22:55:39.654Z,5.59
2023-12-19T22:58:12.241Z,5.61
2023-12-19T23:00:39.271Z,5.50
2023-12-19T23:03:06.542Z,5.56
2023-12-19T23:05:42.268Z,5.63
2023-12-19T23:08:09.136Z,5.61
2023-12-19T23:10:38.946Z,5.60
2023-12-19T23:13:06.443Z,5.57
2023-12-19T23:15:43.150Z,5.62
2023-12-19T23:18:10.062Z,5.58
2023-12-19T23:20:45.937Z,5.52
2023-12-19T23:23:15.163Z,5.53
2023-12-19T23:25:42.331Z,5.47
2023-12-19T23:28:11.257Z,5.43
2023-12-19T23:30:38.128Z,5.36
2023-12-19T23:33:05.168Z,5.29
2023-12-19T23:35:31.876Z,5.28
2023-12-19T23:37:58.651Z,5.25
2023-12-19T23:40:35.503Z,5.21
2023-12-19T23:43:02.182Z,5.26
2023-12-19T23:45:28.834Z,5.23
2023-12-19T23:48:09.750Z,5.13
2023-12-19T23:50:36.476Z,5.04
2023-12-19T23:53:03.078Z,4.95
2023-12-19T23:55:36.105Z,4.96
2023-12-19T23:58:04.554Z,4.91
